createdAt,value
2019-05-20T00:00:55.675Z,15.83
2019-05-20T00:05:59.926Z,14.80
2019-05-20T00:11:04.232Z,14.90
2019-05-20T00:16:08.567Z,16.00
2019-05-20T00:21:12.813Z,14.78
2019-05-20T00:26:17.144Z,15.13
2019-05-20T00:31:21.337Z,16.42
2019-05-20T00:36:25.546Z,15.30
2019-05-20T00:41:29.783Z,15.30
2019-05-20T00:46:33.990Z,15.68
2019-05-20T00:51:38.228Z,14.50
2019-05-20T00:56:42.427Z,15.70
2019-05-20T01:01:46.686Z,15.43
2019-05-20T01:06:51.171Z,15.05
2019-05-20T01:11:55.361Z,15.30
2019-05-20T01:16:59.664Z,15.40
2019-05-20T01:22:03.873Z,14.85
2019-05-20T01:27:08.093Z,15.18
2019-05-20T01:32:12.317Z,15.00
2019-05-20T01:37:16.516Z,15.90
2019-05-20T01:42:20.745Z,15.48
2019-05-20T01:47:24.968Z,14.95
2019-05-20T01:52:29.207Z,14.93
2019-05-20T01:57:33.420Z,16.52
2019-05-20T02:02:37.822Z,15.83
2019-05-20T02:07:42.052Z,15.50
2019-05-20T02:12:46.311Z,16.62
2019-05-20T02:17:50.511Z,17.45
2019-05-20T02:22:56.977Z,16.27
2019-05-20T02:28:01.189Z,16.27
2019-05-20T02:33:05.379Z,17.37
2019-05-20T02:38:09.576Z,15.65
2019-05-20T02:43:14.103Z,15.63
2019-05-20T02:48:18.335Z,17.30
2019-05-20T02:53:22.563Z,17.20
2019-05-20T02:58:26.771Z,17.48
2019-05-20T03:03:30.996Z,17.27
2019-05-20T03:08:35.204Z,17.00
2019-05-20T03:13:39.401Z,17.67
2019-05-20T03:18:43.601Z,16.90
2019-05-20T03:23:47.807Z,18.95
2019-05-20T03:28:52.004Z,18.55
2019-05-20T03:33:56.212Z,18.30
2019-05-20T03:39:00.614Z,18.40
2019-05-20T03:44:04.945Z,18.52
2019-05-20T03:49:09.179Z,18.37
2019-05-20T03:54:13.372Z,18.92
2019-05-20T03:59:17.594Z,19.37
2019-05-20T04:04:24.992Z,18.70
2019-05-20T04:09:27.739Z,19.73
2019-05-20T04:14:31.920Z,19.42
2019-05-20T04:19:36.217Z,20.50
2019-05-20T04:24:40.415Z,19.77
2019-05-20T04:29:44.818Z,18.62
2019-05-20T04:34:49.046Z,19.15
2019-05-20T04:39:53.281Z,18.20
2019-05-20T04:44:57.470Z,18.30
2019-05-20T04:50:01.686Z,18.27
2019-05-20T04:55:06.128Z,18.60
2019-05-20T05:00:10.926Z,18.67
2019-05-20T05:05:15.134Z,18.32
2019-05-20T05:10:19.323Z,18.25
2019-05-20T05:15:23.519Z,18.62
2019-05-20T05:20:27.716Z,18.65
2019-05-20T05:25:31.958Z,18.15
2019-05-20T05:30:37.277Z,16.77
2019-05-20T05:35:52.762Z,17.12
2019-05-20T05:40:47.386Z,17.85
2019-05-20T05:45:51.601Z,16.80
2019-05-20T05:50:55.805Z,16.27
2019-05-20T05:56:00.021Z,15.15
2019-05-20T06:01:04.222Z,15.83
2019-05-20T06:06:12.651Z,18.87
2019-05-20T06:11:14.717Z,15.70
2019-05-20T06:16:35.440Z,16.07
2019-05-20T06:21:24.903Z,14.78
2019-05-20T06:26:29.113Z,15.23
2019-05-20T06:31:33.330Z,13.93
2019-05-20T06:36:42.399Z,13.58
2019-05-20T06:41:46.628Z,14.15
2019-05-20T06:46:50.845Z,12.47
2019-05-20T06:51:55.052Z,12.05
2019-05-20T06:56:59.300Z,11.73
2019-05-20T07:02:03.618Z,12.70
2019-05-20T07:07:20.604Z,13.05
2019-05-20T07:12:13.845Z,13.75
2019-05-20T07:17:18.054Z,11.88
2019-05-20T07:22:22.296Z,11.97
2019-05-20T07:27:26.493Z,10.93
2019-05-20T07:32:30.700Z,11.03
2019-05-20T07:37:34.918Z,11.05
2019-05-20T07:42:39.186Z,11.05
2019-05-20T07:47:43.981Z,9.35
2019-05-20T07:52:48.284Z,9.43
2019-05-20T07:57:54.922Z,9.38
2019-05-20T08:02:59.427Z,8.68
2019-05-20T08:08:02.439Z,8.55
2019-05-20T08:13:06.580Z,8.70
2019-05-20T08:18:10.791Z,7.75
2019-05-20T08:23:14.987Z,9.43
2019-05-20T08:28:19.197Z,7.75
2019-05-20T08:33:23.502Z,7.58
2019-05-20T08:38:27.724Z,7.87
2019-05-20T08:43:31.895Z,8.30
2019-05-20T08:48:36.103Z,9.35
2019-05-20T08:53:40.692Z,7.80
2019-05-20T08:58:44.901Z,7.12
2019-05-20T09:03:49.091Z,7.62
2019-05-20T09:08:53.321Z,7.05
2019-05-20T09:13:57.577Z,6.67
2019-05-20T09:19:01.757Z,5.30
2019-05-20T09:24:06.310Z,5.42
2019-05-20T09:29:11.537Z,5.42
2019-05-20T09:34:16.273Z,5.87
2019-05-20T09:39:20.520Z,6.08
2019-05-20T09:44:24.792Z,5.80
2019-05-20T09:49:29.016Z,5.90
2019-05-20T09:54:33.228Z,5.55
2019-05-20T09:59:43.423Z,6.05
2019-05-20T10:04:43.477Z,5.60
2019-05-20T10:09:47.673Z,5.40
2019-05-20T10:14:52.883Z,6.12
2019-05-20T10:19:57.174Z,6.30
2019-05-20T10:25:01.713Z,5.72
2019-05-20T10:30:06.862Z,5.20
2019-05-20T10:35:11.508Z,5.70
2019-05-20T10:40:16.002Z,5.33
2019-05-20T10:45:20.205Z,6.78
2019-05-20T10:50:24.400Z,5.00
2019-05-20T10:55:28.613Z,5.83
2019-05-20T11:00:32.962Z,5.90
2019-05-20T11:05:37.138Z,5.47
2019-05-20T11:10:41.320Z,4.95
2019-05-20T11:15:45.572Z,11.08
2019-05-20T11:20:49.765Z,6.08
2019-05-20T11:25:54.034Z,5.83
2019-05-20T11:30:58.419Z,6.30
2019-05-20T11:36:02.608Z,6.80
2019-05-20T11:41:06.792Z,5.85
2019-05-20T11:46:12.119Z,5.72
2019-05-20T11:51:16.315Z,5.90
2019-05-20T11:56:20.508Z,6.08
2019-05-20T12:01:24.735Z,5.30
2019-05-20T12:06:28.947Z,6.25
2019-05-20T12:11:33.135Z,5.25
2019-05-20T12:16:37.461Z,6.50
2019-05-20T12:21:41.667Z,6.30
2019-05-20T12:26:45.854Z,6.12
2019-05-20T12:31:50.038Z,5.80
2019-05-20T12:36:54.276Z,6.10
2019-05-20T12:41:58.449Z,6.35
2019-05-20T12:47:03.353Z,6.92
2019-05-20T12:52:07.569Z,7.08
2019-05-20T12:57:11.802Z,6.85
2019-05-20T13:02:17.476Z,7.45
2019-05-20T13:07:21.900Z,7.90
2019-05-20T13:12:26.091Z,7.15
2019-05-20T13:17:30.324Z,7.17
2019-05-20T13:22:34.497Z,7.20
2019-05-20T13:27:38.691Z,7.12
2019-05-20T13:32:42.994Z,7.40
2019-05-20T13:37:47.201Z,7.55
2019-05-20T13:42:51.493Z,7.85
2019-05-20T13:47:55.684Z,7.50
2019-05-20T13:52:59.872Z,7.47
2019-05-20T13:58:04.258Z,7.67
2019-05-20T14:03:08.515Z,8.75
2019-05-20T14:08:12.756Z,9.18
2019-05-20T14:13:17.023Z,8.95
2019-05-20T14:18:21.224Z,9.08
2019-05-20T14:23:25.438Z,8.50
2019-05-20T14:28:29.629Z,9.73
2019-05-20T14:33:33.861Z,10.18
2019-05-20T14:38:38.080Z,10.48
2019-05-20T14:43:42.340Z,12.45
2019-05-20T14:48:46.523Z,13.13
2019-05-20T14:53:50.765Z,15.30
2019-05-20T14:58:55.857Z,15.53
2019-05-20T15:04:00.169Z,14.55
2019-05-20T15:09:05.160Z,15.50
2019-05-20T15:14:09.396Z,14.65
2019-05-20T15:19:13.601Z,13.85
2019-05-20T15:24:17.798Z,9.28
2019-05-20T15:29:27.989Z,8.60
2019-05-20T15:34:27.968Z,8.85
2019-05-20T15:39:32.272Z,7.85
2019-05-20T15:44:36.475Z,6.85
2019-05-20T15:49:40.712Z,7.92
2019-05-20T15:54:44.932Z,6.95
2019-05-20T15:59:49.146Z,6.25
2019-05-20T16:04:53.438Z,6.75
2019-05-20T16:09:57.625Z,8.45
2019-05-20T16:15:01.853Z,8.48
2019-05-20T16:20:07.288Z,8.25
2019-05-20T16:25:12.082Z,8.75
2019-05-20T16:30:16.592Z,9.85
2019-05-20T16:35:21.006Z,10.45
2019-05-20T16:40:25.199Z,9.98
2019-05-20T16:45:29.385Z,10.30
2019-05-20T16:50:33.757Z,12.60
2019-05-20T16:55:37.962Z,12.73
2019-05-20T17:00:43.114Z,13.95
2019-05-20T17:05:47.333Z,14.03
2019-05-20T17:10:51.556Z,14.07
2019-05-20T17:15:55.805Z,15.65
2019-05-20T17:20:59.991Z,15.60
2019-05-20T17:26:04.227Z,15.08
2019-05-20T17:31:08.425Z,14.28
2019-05-20T17:36:12.710Z,12.47
2019-05-20T17:41:16.908Z,13.38
2019-05-20T17:46:21.233Z,12.82
2019-05-20T17:51:25.451Z,12.18
2019-05-20T17:56:29.841Z,12.58
2019-05-20T18:01:34.082Z,13.10
2019-05-20T18:06:38.273Z,12.82
2019-05-20T18:11:42.482Z,13.78
2019-05-20T18:16:46.733Z,14.73
2019-05-20T18:21:50.975Z,29.82
2019-05-20T18:26:55.186Z,16.07
2019-05-20T18:31:59.449Z,17.37
2019-05-20T18:37:04.157Z,16.07
2019-05-20T18:42:08.390Z,19.77
2019-05-20T18:47:13.031Z,17.95
2019-05-20T18:52:17.341Z,18.02
2019-05-20T18:57:21.598Z,19.55
2019-05-20T19:02:26.845Z,19.82
2019-05-20T19:07:31.131Z,21.35
2019-05-20T19:12:35.404Z,20.68
2019-05-20T19:17:39.651Z,21.45
2019-05-20T19:22:43.878Z,21.05
2019-05-20T19:27:48.106Z,20.02
2019-05-20T19:32:52.398Z,19.87
2019-05-20T19:37:57.025Z,20.95
2019-05-20T19:43:01.538Z,19.82
2019-05-20T19:48:05.775Z,20.23
2019-05-20T19:53:10.149Z,39.80
2019-05-20T19:58:14.456Z,34.63
2019-05-20T20:03:18.671Z,18.98
2019-05-20T20:08:22.896Z,20.95
2019-05-20T20:13:28.243Z,19.80
2019-05-20T20:18:32.466Z,20.88
2019-05-20T20:23:36.697Z,19.67
2019-05-20T20:28:40.940Z,20.43
2019-05-20T20:33:45.171Z,19.52
2019-05-20T20:38:49.409Z,19.90
2019-05-20T20:43:53.640Z,21.07
2019-05-20T20:48:57.875Z,19.05
2019-05-20T20:54:02.492Z,17.23
2019-05-20T20:59:06.716Z,25.55
2019-05-20T21:04:10.949Z,21.37
2019-05-20T21:09:15.182Z,20.25
2019-05-20T21:14:19.419Z,18.48
2019-05-20T21:19:23.623Z,18.07
2019-05-20T21:24:27.833Z,17.55
2019-05-20T21:29:32.745Z,16.23
2019-05-20T21:34:37.130Z,18.25
2019-05-20T21:39:41.338Z,17.05
2019-05-20T21:44:45.544Z,15.53
2019-05-20T21:49:49.736Z,19.12
2019-05-20T21:54:53.976Z,16.20
2019-05-20T21:59:58.173Z,16.90
2019-05-20T22:05:02.870Z,15.83
2019-05-20T22:10:07.463Z,15.48
2019-05-20T22:15:11.778Z,15.43
2019-05-20T22:20:16.498Z,15.50
2019-05-20T22:25:20.802Z,16.97
2019-05-20T22:30:25.001Z,15.32
2019-05-20T22:35:29.228Z,15.18
2019-05-20T22:40:33.431Z,15.63
2019-05-20T22:45:37.639Z,15.70
2019-05-20T22:50:41.887Z,16.52
2019-05-20T22:55:46.078Z,15.93
2019-05-20T23:00:50.308Z,16.42
2019-05-20T23:05:54.490Z,16.42
2019-05-20T23:10:58.696Z,16.50
2019-05-20T23:16:02.889Z,15.93
2019-05-20T23:21:07.152Z,17.32
2019-05-20T23:26:11.374Z,16.15
2019-05-20T23:31:15.579Z,15.45
2019-05-20T23:36:19.834Z,16.87
2019-05-20T23:41:24.028Z,17.17
2019-05-20T23:46:28.247Z,17.73
2019-05-20T23:51:32.449Z,17.45
2019-05-20T23:56:36.657Z,18.62
